sensor_id;sensor_type;location;lat;lon;timestamp;P1;durP1;ratioP1;P2;durP2;ratioP2
33403;SDS011;19751;40.274;18.268;2023-06-04T00:02:16;10.95;;;5.38;;
33403;SDS011;19751;40.274;18.268;2023-06-04T00:04:41;9.60;;;4.68;;
33403;SDS011;19751;40.274;18.268;2023-06-04T00:07:07;5.45;;;4.50;;
33403;SDS011;19751;40.274;18.268;2023-06-04T00:09:32;5.32;;;4.63;;
33403;SDS011;19751;40.274;18.268;2023-06-04T00:11:58;7.50;;;5.47;;
33403;SDS011;19751;40.274;18.268;2023-06-04T00:14:23;7.15;;;5.03;;
33403;SDS011;19751;40.274;18.268;2023-06-04T00:16:49;8.00;;;5.30;;
33403;SDS011;19751;40.274;18.268;2023-06-04T00:19:14;9.82;;;5.55;;
33403;SDS011;19751;40.274;18.268;2023-06-04T00:21:40;6.38;;;5.25;;
33403;SDS011;19751;40.274;18.268;2023-06-04T00:24:06;7.68;;;5.40;;
33403;SDS011;19751;40.274;18.268;2023-06-04T00:26:33;11.02;;;5.45;;
33403;SDS011;19751;40.274;18.268;2023-06-04T00:28:58;8.65;;;5.15;;
33403;SDS011;19751;40.274;18.268;2023-06-04T00:31:24;10.15;;;5.53;;
33403;SDS011;19751;40.274;18.268;2023-06-04T00:33:50;7.45;;;5.32;;
33403;SDS011;19751;40.274;18.268;2023-06-04T00:36:15;8.88;;;5.03;;
33403;SDS011;19751;40.274;18.268;2023-06-04T00:38:41;7.57;;;5.05;;
33403;SDS011;19751;40.274;18.268;2023-06-04T00:41:07;7.65;;;5.82;;
33403;SDS011;19751;40.274;18.268;2023-06-04T00:43:32;10.70;;;5.68;;
33403;SDS011;19751;40.274;18.268;2023-06-04T00:45:58;6.97;;;5.03;;
33403;SDS011;19751;40.274;18.268;2023-06-04T00:48:25;9.15;;;5.95;;
33403;SDS011;19751;40.274;18.268;2023-06-04T00:50:52;8.25;;;5.32;;
33403;SDS011;19751;40.274;18.268;2023-06-04T00:53:19;9.30;;;5.95;;
33403;SDS011;19751;40.274;18.268;2023-06-04T00:55:46;9.68;;;5.82;;
33403;SDS011;19751;40.274;18.268;2023-06-04T00:58:11;7.40;;;6.25;;
33403;SDS011;19751;40.274;18.268;2023-06-04T01:00:38;10.55;;;5.45;;
33403;SDS011;19751;40.274;18.268;2023-06-04T01:03:06;10.10;;;6.68;;
33403;SDS011;19751;40.274;18.268;2023-06-04T01:05:37;9.68;;;6.07;;
33403;SDS011;19751;40.274;18.268;2023-06-04T01:08:08;5.75;;;4.78;;
33403;SDS011;19751;40.274;18.268;2023-06-04T01:10:36;8.70;;;5.78;;
33403;SDS011;19751;40.274;18.268;2023-06-04T01:13:01;11.77;;;6.05;;
33403;SDS011;19751;40.274;18.268;2023-06-04T01:15:27;9.82;;;6.07;;
33403;SDS011;19751;40.274;18.268;2023-06-04T01:17:54;9.45;;;6.10;;
33403;SDS011;19751;40.274;18.268;2023-06-04T01:20:40;9.25;;;5.55;;
33403;SDS011;19751;40.274;18.268;2023-06-04T01:25:58;9.75;;;6.00;;
33403;SDS011;19751;40.274;18.268;2023-06-04T01:28:27;7.28;;;4.97;;
33403;SDS011;19751;40.274;18.268;2023-06-04T01:30:54;7.07;;;5.63;;
33403;SDS011;19751;40.274;18.268;2023-06-04T01:33:21;11.85;;;5.93;;
33403;SDS011;19751;40.274;18.268;2023-06-04T01:35:48;6.43;;;4.80;;
33403;SDS011;19751;40.274;18.268;2023-06-04T01:38:14;8.75;;;6.15;;
33403;SDS011;19751;40.274;18.268;2023-06-04T01:40:40;6.88;;;5.32;;
33403;SDS011;19751;40.274;18.268;2023-06-04T01:43:06;9.07;;;5.35;;
33403;SDS011;19751;40.274;18.268;2023-06-04T01:45:31;8.52;;;6.38;;
33403;SDS011;19751;40.274;18.268;2023-06-04T01:47:57;10.63;;;4.53;;
33403;SDS011;19751;40.274;18.268;2023-06-04T01:50:23;8.30;;;5.28;;
33403;SDS011;19751;40.274;18.268;2023-06-04T01:52:49;8.10;;;6.13;;
33403;SDS011;19751;40.274;18.268;2023-06-04T01:55:15;10.77;;;5.95;;
33403;SDS011;19751;40.274;18.268;2023-06-04T01:57:42;6.90;;;5.35;;
33403;SDS011;19751;40.274;18.268;2023-06-04T02:00:09;6.65;;;5.75;;
33403;SDS011;19751;40.274;18.268;2023-06-04T02:02:36;9.32;;;6.20;;
33403;SDS011;19751;40.274;18.268;2023-06-04T02:05:05;10.35;;;6.35;;
33403;SDS011;19751;40.274;18.268;2023-06-04T02:07:36;9.70;;;6.03;;
33403;SDS011;19751;40.274;18.268;2023-06-04T02:10:12;7.70;;;5.72;;
33403;SDS011;19751;40.274;18.268;2023-06-04T02:15:37;7.70;;;5.28;;
33403;SDS011;19751;40.274;18.268;2023-06-04T02:18:13;8.32;;;4.93;;
33403;SDS011;19751;40.274;18.268;2023-06-04T02:20:45;9.48;;;6.43;;
33403;SDS011;19751;40.274;18.268;2023-06-04T02:23:13;9.02;;;6.00;;
33403;SDS011;19751;40.274;18.268;2023-06-04T02:25:40;9.25;;;5.47;;
33403;SDS011;19751;40.274;18.268;2023-06-04T02:28:06;9.02;;;5.93;;
33403;SDS011;19751;40.274;18.268;2023-06-04T02:30:33;8.57;;;5.38;;
33403;SDS011;19751;40.274;18.268;2023-06-04T02:32:58;8.57;;;5.22;;
33403;SDS011;19751;40.274;18.268;2023-06-04T02:35:26;9.18;;;6.18;;
33403;SDS011;19751;40.274;18.268;2023-06-04T02:37:53;9.10;;;5.30;;
33403;SDS011;19751;40.274;18.268;2023-06-04T02:40:18;7.35;;;5.07;;
33403;SDS011;19751;40.274;18.268;2023-06-04T02:42:44;8.40;;;5.30;;
33403;SDS011;19751;40.274;18.268;2023-06-04T02:45:10;8.30;;;5.75;;
33403;SDS011;19751;40.274;18.268;2023-06-04T02:47:36;5.50;;;4.60;;
33403;SDS011;19751;40.274;18.268;2023-06-04T02:50:02;7.78;;;5.22;;
33403;SDS011;19751;40.274;18.268;2023-06-04T02:52:28;6.75;;;5.22;;
33403;SDS011;19751;40.274;18.268;2023-06-04T02:54:55;7.80;;;6.18;;
33403;SDS011;19751;40.274;18.268;2023-06-04T02:57:22;6.63;;;4.82;;
33403;SDS011;19751;40.274;18.268;2023-06-04T02:59:47;9.80;;;5.65;;
33403;SDS011;19751;40.274;18.268;2023-06-04T03:02:13;8.05;;;5.40;;
33403;SDS011;19751;40.274;18.268;2023-06-04T03:04:40;9.05;;;6.47;;
33403;SDS011;19751;40.274;18.268;2023-06-04T03:07:07;11.73;;;7.32;;
33403;SDS011;19751;40.274;18.268;2023-06-04T03:09:36;8.88;;;6.53;;
33403;SDS011;19751;40.274;18.268;2023-06-04T03:12:02;9.48;;;6.75;;
33403;SDS011;19751;40.274;18.268;2023-06-04T03:14:28;9.13;;;6.22;;
33403;SDS011;19751;40.274;18.268;2023-06-04T03:17:00;9.02;;;5.88;;
33403;SDS011;19751;40.274;18.268;2023-06-04T03:19:35;8.57;;;6.80;;
33403;SDS011;19751;40.274;18.268;2023-06-04T03:22:03;9.73;;;6.88;;
33403;SDS011;19751;40.274;18.268;2023-06-04T03:24:33;7.93;;;6.20;;
33403;SDS011;19751;40.274;18.268;2023-06-04T03:27:02;15.27;;;6.47;;
33403;SDS011;19751;40.274;18.268;2023-06-04T03:29:29;10.38;;;7.65;;
33403;SDS011;19751;40.274;18.268;2023-06-04T03:31:58;10.82;;;7.50;;
33403;SDS011;19751;40.274;18.268;2023-06-04T03:34:23;10.57;;;7.50;;
33403;SDS011;19751;40.274;18.268;2023-06-04T03:36:54;10.55;;;7.63;;
33403;SDS011;19751;40.274;18.268;2023-06-04T03:39:20;8.07;;;6.53;;
33403;SDS011;19751;40.274;18.268;2023-06-04T03:41:46;8.70;;;6.90;;
33403;SDS011;19751;40.274;18.268;2023-06-04T03:44:12;9.70;;;6.70;;
33403;SDS011;19751;40.274;18.268;2023-06-04T03:46:39;12.68;;;7.97;;
33403;SDS011;19751;40.274;18.268;2023-06-04T03:49:05;12.30;;;7.78;;
33403;SDS011;19751;40.274;18.268;2023-06-04T03:51:30;9.90;;;7.57;;
33403;SDS011;19751;40.274;18.268;2023-06-04T03:53:57;10.05;;;7.13;;
33403;SDS011;19751;40.274;18.268;2023-06-04T03:56:23;12.27;;;6.95;;
33403;SDS011;19751;40.274;18.268;2023-06-04T03:58:49;11.63;;;7.57;;
33403;SDS011;19751;40.274;18.268;2023-06-04T04:01:15;9.13;;;7.65;;
33403;SDS011;19751;40.274;18.268;2023-06-04T04:03:42;11.77;;;7.80;;
33403;SDS011;19751;40.274;18.268;2023-06-04T04:06:09;11.18;;;7.82;;
33403;SDS011;19751;40.274;18.268;2023-06-04T04:08:35;11.40;;;7.25;;
33403;SDS011;19751;40.274;18.268;2023-06-04T04:11:00;9.73;;;7.38;;
33403;SDS011;19751;40.274;18.268;2023-06-04T04:13:26;7.53;;;6.50;;
33403;SDS011;19751;40.274;18.268;2023-06-04T04:15:52;11.73;;;7.47;;
33403;SDS011;19751;40.274;18.268;2023-06-04T04:18:22;10.90;;;6.20;;
33403;SDS011;19751;40.274;18.268;2023-06-04T04:20:47;9.77;;;7.13;;
33403;SDS011;19751;40.274;18.268;2023-06-04T04:23:13;9.07;;;6.20;;
33403;SDS011;19751;40.274;18.268;2023-06-04T04:25:39;8.35;;;5.80;;
33403;SDS011;19751;40.274;18.268;2023-06-04T04:28:05;6.95;;;5.35;;
33403;SDS011;19751;40.274;18.268;2023-06-04T04:30:33;10.38;;;6.82;;
33403;SDS011;19751;40.274;18.268;2023-06-04T04:33:00;9.75;;;6.97;;
33403;SDS011;19751;40.274;18.268;2023-06-04T04:35:26;11.20;;;7.05;;
33403;SDS011;19751;40.274;18.268;2023-06-04T04:37:52;13.45;;;7.65;;
33403;SDS011;19751;40.274;18.268;2023-06-04T04:40:17;8.60;;;6.68;;
33403;SDS011;19751;40.274;18.268;2023-06-04T04:42:43;7.50;;;6.55;;
33403;SDS011;19751;40.274;18.268;2023-06-04T04:45:08;8.40;;;6.25;;
33403;SDS011;19751;40.274;18.268;2023-06-04T04:47:34;7.97;;;6.38;;
33403;SDS011;19751;40.274;18.268;2023-06-04T04:50:00;6.13;;;4.80;;
33403;SDS011;19751;40.274;18.268;2023-06-04T04:52:25;7.43;;;5.57;;
33403;SDS011;19751;40.274;18.268;2023-06-04T04:54:51;12.18;;;5.32;;
33403;SDS011;19751;40.274;18.268;2023-06-04T04:57:21;6.68;;;5.28;;
33403;SDS011;19751;40.274;18.268;2023-06-04T04:59:47;6.75;;;5.35;;
33403;SDS011;19751;40.274;18.268;2023-06-04T05:02:13;7.93;;;5.30;;
33403;SDS011;19751;40.274;18.268;2023-06-04T05:04:38;7.35;;;5.90;;
33403;SDS011;19751;40.274;18.268;2023-06-04T05:07:04;8.27;;;5.20;;
33403;SDS011;19751;40.274;18.268;2023-06-04T05:09:29;7.03;;;4.93;;
33403;SDS011;19751;40.274;18.268;2023-06-04T05:11:55;8.02;;;4.40;;
33403;SDS011;19751;40.274;18.268;2023-06-04T05:14:21;6.72;;;5.28;;
33403;SDS011;19751;40.274;18.268;2023-06-04T05:16:46;4.97;;;4.07;;
33403;SDS011;19751;40.274;18.268;2023-06-04T05:19:13;5.22;;;4.70;;
33403;SDS011;19751;40.274;18.268;2023-06-04T05:21:41;9.07;;;4.30;;
33403;SDS011;19751;40.274;18.268;2023-06-04T05:24:07;7.13;;;3.92;;
33403;SDS011;19751;40.274;18.268;2023-06-04T05:26:33;3.88;;;3.50;;
33403;SDS011;19751;40.274;18.268;2023-06-04T05:28:58;4.80;;;3.50;;
33403;SDS011;19751;40.274;18.268;2023-06-04T05:31:24;5.38;;;3.60;;
33403;SDS011;19751;40.274;18.268;2023-06-04T05:33:51;5.22;;;3.50;;
33403;SDS011;19751;40.274;18.268;2023-06-04T05:36:17;3.53;;;3.15;;
33403;SDS011;19751;40.274;18.268;2023-06-04T05:38:43;3.75;;;3.38;;
33403;SDS011;19751;40.274;18.268;2023-06-04T05:41:08;3.08;;;2.78;;
33403;SDS011;19751;40.274;18.268;2023-06-04T05:43:34;3.20;;;2.90;;
33403;SDS011;19751;40.274;18.268;2023-06-04T05:46:00;3.72;;;2.90;;
33403;SDS011;19751;40.274;18.268;2023-06-04T05:48:25;3.53;;;2.90;;
33403;SDS011;19751;40.274;18.268;2023-06-04T05:50:51;3.28;;;2.95;;
33403;SDS011;19751;40.274;18.268;2023-06-04T05:53:16;7.75;;;3.05;;
33403;SDS011;19751;40.274;18.268;2023-06-04T05:55:42;4.03;;;3.10;;
33403;SDS011;19751;40.274;18.268;2023-06-04T05:58:08;5.82;;;3.58;;
33403;SDS011;19751;40.274;18.268;2023-06-04T06:00:33;3.40;;;3.10;;
33403;SDS011;19751;40.274;18.268;2023-06-04T06:03:00;7.88;;;3.35;;
33403;SDS011;19751;40.274;18.268;2023-06-04T06:05:26;3.40;;;2.78;;
33403;SDS011;19751;40.274;18.268;2023-06-04T06:07:52;7.80;;;3.38;;
33403;SDS011;19751;40.274;18.268;2023-06-04T06:10:17;4.55;;;3.05;;
33403;SDS011;19751;40.274;18.268;2023-06-04T06:12:43;4.82;;;3.50;;
33403;SDS011;19751;40.274;18.268;2023-06-04T06:15:09;3.10;;;2.80;;
33403;SDS011;19751;40.274;18.268;2023-06-04T06:17:35;4.97;;;2.97;;
33403;SDS011;19751;40.274;18.268;2023-06-04T06:20:03;6.35;;;2.78;;
33403;SDS011;19751;40.274;18.268;2023-06-04T06:22:32;2.80;;;2.50;;
33403;SDS011;19751;40.274;18.268;2023-06-04T06:24:59;3.63;;;2.80;;
33403;SDS011;19751;40.274;18.268;2023-06-04T06:27:24;4.35;;;3.25;;
33403;SDS011;19751;40.274;18.268;2023-06-04T06:29:50;4.35;;;3.25;;
33403;SDS011;19751;40.274;18.268;2023-06-04T06:32:16;3.95;;;3.00;;
33403;SDS011;19751;40.274;18.268;2023-06-04T06:34:41;83.43;;;9.57;;
33403;SDS011;19751;40.274;18.268;2023-06-04T06:37:07;21.20;;;5.22;;
33403;SDS011;19751;40.274;18.268;2023-06-04T06:39:35;5.40;;;3.33;;
33403;SDS011;19751;40.274;18.268;2023-06-04T06:42:02;4.85;;;2.55;;
33403;SDS011;19751;40.274;18.268;2023-06-04T06:44:28;3.53;;;3.10;;
33403;SDS011;19751;40.274;18.268;2023-06-04T06:46:53;3.15;;;2.85;;
33403;SDS011;19751;40.274;18.268;2023-06-04T06:49:19;3.42;;;3.13;;
33403;SDS011;19751;40.274;18.268;2023-06-04T06:51:44;3.67;;;3.33;;
33403;SDS011;19751;40.274;18.268;2023-06-04T06:54:10;8.48;;;3.28;;
33403;SDS011;19751;40.274;18.268;2023-06-04T06:56:35;3.42;;;2.97;;
33403;SDS011;19751;40.274;18.268;2023-06-04T06:59:01;3.05;;;2.70;;
33403;SDS011;19751;40.274;18.268;2023-06-04T07:01:26;7.63;;;3.10;;
33403;SDS011;19751;40.274;18.268;2023-06-04T07:03:52;28.02;;;4.90;;
33403;SDS011;19751;40.274;18.268;2023-06-04T07:06:17;11.57;;;3.33;;
33403;SDS011;19751;40.274;18.268;2023-06-04T07:08:43;9.73;;;3.15;;
33403;SDS011;19751;40.274;18.268;2023-06-04T07:11:08;6.38;;;3.00;;
33403;SDS011;19751;40.274;18.268;2023-06-04T07:13:37;2.45;;;2.25;;
33403;SDS011;19751;40.274;18.268;2023-06-04T07:16:03;3.28;;;2.85;;
33403;SDS011;19751;40.274;18.268;2023-06-04T07:18:29;3.47;;;3.03;;
33403;SDS011;19751;40.274;18.268;2023-06-04T07:20:54;4.85;;;3.28;;
33403;SDS011;19751;40.274;18.268;2023-06-04T07:23:20;4.97;;;3.15;;
33403;SDS011;19751;40.274;18.268;2023-06-04T07:25:45;5.10;;;3.17;;
33403;SDS011;19751;40.274;18.268;2023-06-04T07:28:11;3.92;;;3.15;;
33403;SDS011;19751;40.274;18.268;2023-06-04T07:30:37;6.22;;;3.03;;
33403;SDS011;19751;40.274;18.268;2023-06-04T07:33:03;4.10;;;3.15;;
33403;SDS011;19751;40.274;18.268;2023-06-04T07:35:30;5.32;;;3.55;;
33403;SDS011;19751;40.274;18.268;2023-06-04T07:37:55;4.45;;;3.42;;
33403;SDS011;19751;40.274;18.268;2023-06-04T07:40:20;7.43;;;3.40;;
33403;SDS011;19751;40.274;18.268;2023-06-04T07:42:46;5.32;;;3.50;;
33403;SDS011;19751;40.274;18.268;2023-06-04T07:45:13;6.53;;;4.18;;
33403;SDS011;19751;40.274;18.268;2023-06-04T07:47:39;4.82;;;3.67;;
33403;SDS011;19751;40.274;18.268;2023-06-04T07:50:05;4.50;;;3.70;;
33403;SDS011;19751;40.274;18.268;2023-06-04T07:52:31;4.68;;;3.78;;
33403;SDS011;19751;40.274;18.268;2023-06-04T07:54:57;4.07;;;3.50;;
33403;SDS011;19751;40.274;18.268;2023-06-04T07:57:23;5.43;;;3.20;;
33403;SDS011;19751;40.274;18.268;2023-06-04T07:59:49;4.90;;;3.20;;
33403;SDS011;19751;40.274;18.268;2023-06-04T08:02:14;4.95;;;3.42;;
33403;SDS011;19751;40.274;18.268;2023-06-04T08:04:40;4.05;;;3.30;;
33403;SDS011;19751;40.274;18.268;2023-06-04T08:07:06;4.30;;;3.35;;
33403;SDS011;19751;40.274;18.268;2023-06-04T08:09:32;4.00;;;3.25;;
33403;SDS011;19751;40.274;18.268;2023-06-04T08:11:57;4.97;;;3.75;;
33403;SDS011;19751;40.274;18.268;2023-06-04T08:14:23;4.22;;;3.10;;
33403;SDS011;19751;40.274;18.268;2023-06-04T08:16:52;3.25;;;3.03;;
33403;SDS011;19751;40.274;18.268;2023-06-04T08:19:17;3.45;;;3.15;;
33403;SDS011;19751;40.274;18.268;2023-06-04T08:21:43;3.20;;;2.90;;
33403;SDS011;19751;40.274;18.268;2023-06-04T08:24:10;6.25;;;3.55;;
33403;SDS011;19751;40.274;18.268;2023-06-04T08:26:35;4.75;;;3.95;;
33403;SDS011;19751;40.274;18.268;2023-06-04T08:29:04;3.92;;;3.05;;
33403;SDS011;19751;40.274;18.268;2023-06-04T08:31:29;4.03;;;3.03;;
33403;SDS011;19751;40.274;18.268;2023-06-04T08:33:55;3.38;;;3.08;;
33403;SDS011;19751;40.274;18.268;2023-06-04T08:36:21;3.90;;;3.53;;
33403;SDS011;19751;40.274;18.268;2023-06-04T08:38:46;3.92;;;3.28;;
33403;SDS011;19751;40.274;18.268;2023-06-04T08:41:16;5.40;;;3.60;;
33403;SDS011;19751;40.274;18.268;2023-06-04T08:43:48;5.85;;;4.32;;
33403;SDS011;19751;40.274;18.268;2023-06-04T08:46:15;4.22;;;3.55;;
33403;SDS011;19751;40.274;18.268;2023-06-04T08:48:42;3.78;;;3.20;;
33403;SDS011;19751;40.274;18.268;2023-06-04T08:51:09;5.10;;;3.90;;
33403;SDS011;19751;40.274;18.268;2023-06-04T08:53:36;4.82;;;3.47;;
33403;SDS011;19751;40.274;18.268;2023-06-04T08:56:02;4.95;;;3.85;;
33403;SDS011;19751;40.274;18.268;2023-06-04T08:58:31;3.10;;;2.55;;
33403;SDS011;19751;40.274;18.268;2023-06-04T09:01:00;5.13;;;4.10;;
33403;SDS011;19751;40.274;18.268;2023-06-04T09:03:26;3.45;;;3.05;;
33403;SDS011;19751;40.274;18.268;2023-06-04T09:05:53;3.92;;;3.17;;
33403;SDS011;19751;40.274;18.268;2023-06-04T09:08:20;3.28;;;2.88;;
33403;SDS011;19751;40.274;18.268;2023-06-04T09:10:48;4.38;;;3.15;;
33403;SDS011;19751;40.274;18.268;2023-06-04T09:13:17;3.40;;;3.10;;
33403;SDS011;19751;40.274;18.268;2023-06-04T09:15:45;4.57;;;3.72;;
33403;SDS011;19751;40.274;18.268;2023-06-04T09:18:11;4.55;;;4.00;;
33403;SDS011;19751;40.274;18.268;2023-06-04T09:20:37;4.70;;;3.63;;
33403;SDS011;19751;40.274;18.268;2023-06-04T09:23:12;5.40;;;3.85;;
33403;SDS011;19751;40.274;18.268;2023-06-04T09:25:43;5.90;;;4.53;;
33403;SDS011;19751;40.274;18.268;2023-06-04T09:28:09;6.90;;;3.65;;
33403;SDS011;19751;40.274;18.268;2023-06-04T09:30:34;4.53;;;3.42;;
33403;SDS011;19751;40.274;18.268;2023-06-04T09:33:07;5.10;;;4.20;;
33403;SDS011;19751;40.274;18.268;2023-06-04T09:35:37;19.63;;;4.78;;
33403;SDS011;19751;40.274;18.268;2023-06-04T09:38:04;5.15;;;3.78;;
33403;SDS011;19751;40.274;18.268;2023-06-04T09:40:36;10.02;;;7.30;;
33403;SDS011;19751;40.274;18.268;2023-06-04T09:43:02;6.88;;;3.70;;
33403;SDS011;19751;40.274;18.268;2023-06-04T09:45:31;3.47;;;2.42;;
33403;SDS011;19751;40.274;18.268;2023-06-04T09:47:59;3.83;;;3.47;;
33403;SDS011;19751;40.274;18.268;2023-06-04T09:50:34;9.63;;;4.20;;
33403;SDS011;19751;40.274;18.268;2023-06-04T09:53:12;5.97;;;3.95;;
33403;SDS011;19751;40.274;18.268;2023-06-04T09:55:38;6.38;;;4.45;;
33403;SDS011;19751;40.274;18.268;2023-06-04T09:58:03;7.20;;;3.95;;
33403;SDS011;19751;40.274;18.268;2023-06-04T10:00:30;4.78;;;4.18;;
33403;SDS011;19751;40.274;18.268;2023-06-04T10:02:56;9.13;;;4.30;;
33403;SDS011;19751;40.274;18.268;2023-06-04T10:05:24;5.50;;;3.92;;
33403;SDS011;19751;40.274;18.268;2023-06-04T10:07:51;4.45;;;3.50;;
33403;SDS011;19751;40.274;18.268;2023-06-04T10:10:20;5.65;;;4.20;;
33403;SDS011;19751;40.274;18.268;2023-06-04T10:12:50;5.82;;;4.32;;
33403;SDS011;19751;40.274;18.268;2023-06-04T10:15:26;5.25;;;3.88;;
33403;SDS011;19751;40.274;18.268;2023-06-04T10:17:52;7.93;;;4.55;;
33403;SDS011;19751;40.274;18.268;2023-06-04T10:20:20;4.25;;;3.83;;
33403;SDS011;19751;40.274;18.268;2023-06-04T10:22:46;4.28;;;3.88;;
33403;SDS011;19751;40.274;18.268;2023-06-04T10:25:14;6.90;;;4.00;;
33403;SDS011;19751;40.274;18.268;2023-06-04T10:27:41;5.18;;;4.00;;
33403;SDS011;19751;40.274;18.268;2023-06-04T10:30:06;5.20;;;3.38;;
33403;SDS011;19751;40.274;18.268;2023-06-04T10:32:33;5.43;;;4.25;;
33403;SDS011;19751;40.274;18.268;2023-06-04T10:35:03;7.88;;;4.43;;
33403;SDS011;19751;40.274;18.268;2023-06-04T10:37:29;4.10;;;3.70;;
33403;SDS011;19751;40.274;18.268;2023-06-04T10:39:56;4.03;;;3.65;;
33403;SDS011;19751;40.274;18.268;2023-06-04T10:42:23;3.85;;;3.25;;
33403;SDS011;19751;40.274;18.268;2023-06-04T10:44:50;3.63;;;3.05;;
33403;SDS011;19751;40.274;18.268;2023-06-04T10:49:53;6.25;;;3.92;;
33403;SDS011;19751;40.274;18.268;2023-06-04T10:52:20;4.00;;;3.10;;
33403;SDS011;19751;40.274;18.268;2023-06-04T10:54:47;3.38;;;3.05;;
33403;SDS011;19751;40.274;18.268;2023-06-04T10:57:18;3.92;;;3.45;;
33403;SDS011;19751;40.274;18.268;2023-06-04T10:59:54;3.78;;;3.13;;
33403;SDS011;19751;40.274;18.268;2023-06-04T11:02:20;5.30;;;3.15;;
33403;SDS011;19751;40.274;18.268;2023-06-04T11:04:46;3.70;;;3.30;;
33403;SDS011;19751;40.274;18.268;2023-06-04T11:07:11;4.05;;;3.10;;
33403;SDS011;19751;40.274;18.268;2023-06-04T11:09:38;4.57;;;3.92;;
33403;SDS011;19751;40.274;18.268;2023-06-04T11:12:12;6.50;;;3.92;;
33403;SDS011;19751;40.274;18.268;2023-06-04T11:14:38;4.82;;;3.70;;
33403;SDS011;19751;40.274;18.268;2023-06-04T11:17:11;6.85;;;3.60;;
33403;SDS011;19751;40.274;18.268;2023-06-04T11:19:38;4.70;;;3.83;;
33403;SDS011;19751;40.274;18.268;2023-06-04T11:22:10;5.75;;;3.60;;
33403;SDS011;19751;40.274;18.268;2023-06-04T11:24:36;7.53;;;3.33;;
33403;SDS011;19751;40.274;18.268;2023-06-04T11:27:02;3.70;;;3.40;;
33403;SDS011;19751;40.274;18.268;2023-06-04T11:29:27;3.58;;;2.70;;
33403;SDS011;19751;40.274;18.268;2023-06-04T11:31:53;3.42;;;3.13;;
33403;SDS011;19751;40.274;18.268;2023-06-04T11:34:25;6.35;;;3.35;;
33403;SDS011;19751;40.274;18.268;2023-06-04T11:37:06;3.60;;;2.80;;
33403;SDS011;19751;40.274;18.268;2023-06-04T11:39:36;5.53;;;3.35;;
33403;SDS011;19751;40.274;18.268;2023-06-04T11:42:04;13.98;;;4.75;;
33403;SDS011;19751;40.274;18.268;2023-06-04T11:44:32;22.83;;;5.10;;
33403;SDS011;19751;40.274;18.268;2023-06-04T11:46:58;13.90;;;4.38;;
33403;SDS011;19751;40.274;18.268;2023-06-04T11:49:24;26.08;;;5.07;;
33403;SDS011;19751;40.274;18.268;2023-06-04T11:51:52;37.90;;;7.38;;
33403;SDS011;19751;40.274;18.268;2023-06-04T11:54:21;23.73;;;7.65;;
33403;SDS011;19751;40.274;18.268;2023-06-04T11:56:50;17.00;;;5.35;;
33403;SDS011;19751;40.274;18.268;2023-06-04T11:59:17;9.05;;;4.25;;
33403;SDS011;19751;40.274;18.268;2023-06-04T12:01:43;9.27;;;4.60;;
33403;SDS011;19751;40.274;18.268;2023-06-04T12:04:17;9.88;;;4.35;;
33403;SDS011;19751;40.274;18.268;2023-06-04T12:06:59;4.53;;;3.97;;
33403;SDS011;19751;40.274;18.268;2023-06-04T12:09:28;4.97;;;3.60;;
33403;SDS011;19751;40.274;18.268;2023-06-04T12:12:06;9.10;;;3.47;;
33403;SDS011;19751;40.274;18.268;2023-06-04T12:14:33;15.93;;;4.20;;
33403;SDS011;19751;40.274;18.268;2023-06-04T12:17:05;6.35;;;3.30;;
33403;SDS011;19751;40.274;18.268;2023-06-04T12:19:45;7.25;;;3.63;;
33403;SDS011;19751;40.274;18.268;2023-06-04T12:22:12;11.70;;;3.78;;
33403;SDS011;19751;40.274;18.268;2023-06-04T12:24:51;6.90;;;3.72;;
33403;SDS011;19751;40.274;18.268;2023-06-04T12:27:22;11.88;;;3.35;;
33403;SDS011;19751;40.274;18.268;2023-06-04T12:29:58;7.03;;;2.55;;
33403;SDS011;19751;40.274;18.268;2023-06-04T12:32:24;7.05;;;3.28;;
33403;SDS011;19751;40.274;18.268;2023-06-04T12:34:49;11.55;;;3.65;;
33403;SDS011;19751;40.274;18.268;2023-06-04T12:37:15;11.25;;;4.97;;
33403;SDS011;19751;40.274;18.268;2023-06-04T12:39:40;8.45;;;3.78;;
33403;SDS011;19751;40.274;18.268;2023-06-04T12:42:06;8.98;;;4.90;;
33403;SDS011;19751;40.274;18.268;2023-06-04T12:44:35;11.23;;;5.47;;
33403;SDS011;19751;40.274;18.268;2023-06-04T12:47:01;9.38;;;4.78;;
33403;SDS011;19751;40.274;18.268;2023-06-04T12:49:30;7.15;;;3.65;;
33403;SDS011;19751;40.274;18.268;2023-06-04T12:51:56;6.20;;;4.05;;
33403;SDS011;19751;40.274;18.268;2023-06-04T12:54:21;4.72;;;4.00;;
33403;SDS011;19751;40.274;18.268;2023-06-04T12:56:47;8.30;;;6.03;;
33403;SDS011;19751;40.274;18.268;2023-06-04T12:59:13;8.73;;;4.38;;
33403;SDS011;19751;40.274;18.268;2023-06-04T13:01:39;6.32;;;3.85;;
33403;SDS011;19751;40.274;18.268;2023-06-04T13:04:05;7.47;;;4.53;;
33403;SDS011;19751;40.274;18.268;2023-06-04T13:06:31;5.55;;;4.05;;
33403;SDS011;19751;40.274;18.268;2023-06-04T13:08:58;4.68;;;4.15;;
33403;SDS011;19751;40.274;18.268;2023-06-04T13:11:24;5.82;;;4.68;;
33403;SDS011;19751;40.274;18.268;2023-06-04T13:13:49;5.65;;;4.53;;
33403;SDS011;19751;40.274;18.268;2023-06-04T13:16:15;5.07;;;4.55;;
33403;SDS011;19751;40.274;18.268;2023-06-04T13:18:41;4.53;;;3.97;;
33403;SDS011;19751;40.274;18.268;2023-06-04T13:21:06;5.55;;;4.40;;
33403;SDS011;19751;40.274;18.268;2023-06-04T13:23:32;6.28;;;3.80;;
33403;SDS011;19751;40.274;18.268;2023-06-04T13:25:57;3.97;;;3.50;;
33403;SDS011;19751;40.274;18.268;2023-06-04T13:28:23;7.55;;;3.95;;
33403;SDS011;19751;40.274;18.268;2023-06-04T13:30:48;3.97;;;3.35;;
33403;SDS011;19751;40.274;18.268;2023-06-04T13:33:14;4.40;;;3.40;;
33403;SDS011;19751;40.274;18.268;2023-06-04T13:35:39;3.20;;;2.90;;
33403;SDS011;19751;40.274;18.268;2023-06-04T13:38:07;3.05;;;2.75;;
33403;SDS011;19751;40.274;18.268;2023-06-04T13:40:36;3.10;;;2.80;;
33403;SDS011;19751;40.274;18.268;2023-06-04T13:43:02;2.95;;;2.63;;
33403;SDS011;19751;40.274;18.268;2023-06-04T13:45:28;3.97;;;2.90;;
33403;SDS011;19751;40.274;18.268;2023-06-04T13:47:53;2.78;;;2.55;;
33403;SDS011;19751;40.274;18.268;2023-06-04T13:50:19;3.05;;;2.35;;
33403;SDS011;19751;40.274;18.268;2023-06-04T13:52:44;4.13;;;3.00;;
33403;SDS011;19751;40.274;18.268;2023-06-04T13:55:11;2.75;;;2.55;;
33403;SDS011;19751;40.274;18.268;2023-06-04T13:57:37;3.17;;;2.88;;
33403;SDS011;19751;40.274;18.268;2023-06-04T14:00:03;2.50;;;2.30;;
33403;SDS011;19751;40.274;18.268;2023-06-04T14:02:29;4.43;;;2.42;;
33403;SDS011;19751;40.274;18.268;2023-06-04T14:04:55;4.43;;;2.65;;
33403;SDS011;19751;40.274;18.268;2023-06-04T14:07:20;3.97;;;2.40;;
33403;SDS011;19751;40.274;18.268;2023-06-04T14:09:46;3.67;;;2.80;;
33403;SDS011;19751;40.274;18.268;2023-06-04T14:12:13;2.63;;;2.40;;
33403;SDS011;19751;40.274;18.268;2023-06-04T14:14:43;6.10;;;2.65;;
33403;SDS011;19751;40.274;18.268;2023-06-04T14:17:08;3.58;;;2.60;;
33403;SDS011;19751;40.274;18.268;2023-06-04T14:19:34;3.03;;;2.67;;
33403;SDS011;19751;40.274;18.268;2023-06-04T14:21:59;2.88;;;2.55;;
33403;SDS011;19751;40.274;18.268;2023-06-04T14:24:26;4.90;;;3.15;;
33403;SDS011;19751;40.274;18.268;2023-06-04T14:26:51;4.70;;;3.05;;
33403;SDS011;19751;40.274;18.268;2023-06-04T14:29:19;3.20;;;2.90;;
33403;SDS011;19751;40.274;18.268;2023-06-04T14:31:45;3.05;;;2.85;;
33403;SDS011;19751;40.274;18.268;2023-06-04T14:34:10;2.75;;;2.47;;
33403;SDS011;19751;40.274;18.268;2023-06-04T14:36:36;3.28;;;2.88;;
33403;SDS011;19751;40.274;18.268;2023-06-04T14:39:02;2.88;;;2.63;;
33403;SDS011;19751;40.274;18.268;2023-06-04T14:41:27;3.08;;;2.83;;